createdAt,value
2022-09-01T00:02:09.489Z,19.40
2022-09-01T00:05:34.098Z,19.30
2022-09-01T00:09:03.545Z,19.30
2022-09-01T00:12:27.964Z,19.30
2022-09-01T00:15:51.536Z,19.30
2022-09-01T00:19:15.467Z,19.20
2022-09-01T00:22:41.391Z,19.20
2022-09-01T00:26:07.413Z,19.20
2022-09-01T00:29:30.986Z,19.20
2022-09-01T00:32:54.461Z,19.20
2022-09-01T00:36:19.678Z,19.20
2022-09-01T00:39:43.418Z,19.20
2022-09-01T00:43:18.109Z,19.10
2022-09-01T00:46:49.716Z,19.10
2022-09-01T00:50:22.195Z,19.10
2022-09-01T00:53:47.098Z,19.10
2022-09-01T00:57:12.716Z,19.10
2022-09-01T01:00:41.834Z,19.10
2022-09-01T01:04:14.777Z,19.00
2022-09-01T01:07:42.370Z,19.00
2022-09-01T01:11:17.776Z,19.00
2022-09-01T01:14:41.786Z,19.00
2022-09-01T01:18:11.453Z,18.90
2022-09-01T01:22:02.645Z,18.90
2022-09-01T01:25:28.741Z,18.90
2022-09-01T01:28:52.673Z,18.80
2022-09-01T01:32:19.206Z,18.80
2022-09-01T01:35:43.652Z,18.80
2022-09-01T01:39:12.324Z,18.80
2022-09-01T01:42:37.886Z,18.70
2022-09-01T01:46:03.021Z,18.70
2022-09-01T01:49:32.411Z,18.70
2022-09-01T01:52:58.578Z,18.70
2022-09-01T01:56:25.599Z,18.70
2022-09-01T01:59:50.509Z,18.60
2022-09-01T02:03:18.942Z,18.60
2022-09-01T02:06:44.977Z,18.60
2022-09-01T02:10:09.726Z,18.60
2022-09-01T02:13:34.088Z,18.50
2022-09-01T02:17:01.918Z,18.50
2022-09-01T02:20:28.263Z,18.50
2022-09-01T02:23:59.533Z,18.50
2022-09-01T02:27:25.872Z,18.40
2022-09-01T02:30:55.084Z,18.40
2022-09-01T02:34:24.050Z,18.40
2022-09-01T02:37:49.906Z,18.40
2022-09-01T02:41:14.744Z,18.40
2022-09-01T02:44:41.385Z,18.30
2022-09-01T02:48:07.828Z,18.30
2022-09-01T02:51:35.338Z,18.30
2022-09-01T02:54:59.779Z,18.30
2022-09-01T02:58:24.951Z,18.30
2022-09-01T03:01:53.856Z,18.30
2022-09-01T03:05:19.141Z,18.30
2022-09-01T03:08:44.093Z,18.20
2022-09-01T03:12:08.454Z,18.20
2022-09-01T03:15:34.011Z,18.20
2022-09-01T03:18:58.678Z,18.20
2022-09-01T03:22:22.797Z,18.20
2022-09-01T03:25:49.526Z,18.10
2022-09-01T03:29:13.719Z,18.10
2022-09-01T03:32:37.319Z,18.10
2022-09-01T03:36:01.250Z,18.10
2022-09-01T03:39:25.341Z,18.10
2022-09-01T03:42:53.896Z,18.10
2022-09-01T03:46:22.387Z,18.00
2022-09-01T03:49:47.070Z,18.20
2022-09-01T03:53:10.742Z,18.00
2022-09-01T03:56:34.373Z,18.00
2022-09-01T04:00:00.621Z,18.00
2022-09-01T04:03:31.139Z,18.60
2022-09-01T04:06:56.832Z,17.90
2022-09-01T04:10:22.467Z,17.90
2022-09-01T04:13:47.252Z,17.80
2022-09-01T04:17:30.674Z,17.80
2022-09-01T04:20:57.730Z,17.80
2022-09-01T04:24:24.182Z,17.70
2022-09-01T04:27:48.643Z,17.90
2022-09-01T04:31:23.158Z,17.70
2022-09-01T04:34:49.566Z,17.70
2022-09-01T04:38:16.028Z,17.70
2022-09-01T04:41:44.662Z,17.70
2022-09-01T04:45:11.329Z,17.70
2022-09-01T04:48:42.220Z,17.70
2022-09-01T04:52:13.215Z,17.60
2022-09-01T04:55:43.574Z,17.60
2022-09-01T04:59:08.184Z,17.70
2022-09-01T05:02:31.926Z,17.60
2022-09-01T05:05:55.657Z,17.60
2022-09-01T05:09:21.930Z,17.70
2022-09-01T05:13:09.868Z,17.70
2022-09-01T05:16:35.754Z,17.80
2022-09-01T05:20:00.923Z,17.80
2022-09-01T05:23:26.708Z,17.90
2022-09-01T05:26:52.796Z,18.00
2022-09-01T05:30:19.070Z,18.00
2022-09-01T05:33:45.962Z,18.10
2022-09-01T05:37:13.088Z,18.20
2022-09-01T05:40:41.255Z,18.30
2022-09-01T05:44:08.215Z,18.30
2022-09-01T05:47:37.404Z,18.40
2022-09-01T05:51:01.411Z,18.60
2022-09-01T05:54:28.026Z,18.60
2022-09-01T05:57:52.572Z,18.60
2022-09-01T06:01:26.397Z,18.50
2022-09-01T06:04:50.685Z,18.80
2022-09-01T06:08:23.869Z,18.80
2022-09-01T06:11:48.129Z,18.90
2022-09-01T06:15:16.079Z,19.00
2022-09-01T06:18:46.093Z,19.10
2022-09-01T06:22:13.087Z,19.10
2022-09-01T06:25:39.538Z,19.20
2022-09-01T06:29:09.694Z,19.20
2022-09-01T06:32:44.106Z,19.30
2022-09-01T06:36:10.696Z,19.40
2022-09-01T06:39:35.179Z,19.50
2022-09-01T06:43:00.787Z,19.60
2022-09-01T06:46:29.420Z,19.70
2022-09-01T06:49:58.914Z,19.90
2022-09-01T06:53:32.813Z,20.20
2022-09-01T06:58:03.475Z,20.40
2022-09-01T07:00:48.455Z,20.60
2022-09-01T07:04:13.217Z,20.80
2022-09-01T07:08:05.307Z,20.90
2022-09-01T07:19:13.251Z,21.40
2022-09-01T07:26:29.046Z,21.90
2022-09-01T07:29:57.044Z,22.30
2022-09-01T07:38:46.887Z,23.20
2022-09-01T07:44:44.225Z,23.90
2022-09-01T07:49:01.227Z,24.10
2022-09-01T07:52:22.665Z,24.30
2022-09-01T07:55:56.231Z,24.30
2022-09-01T07:59:21.218Z,24.30
2022-09-01T08:02:55.214Z,24.30
2022-09-01T08:06:27.904Z,24.20
2022-09-01T08:09:56.100Z,24.10
2022-09-01T08:13:24.606Z,24.00
2022-09-01T08:16:55.375Z,23.80
2022-09-01T08:20:19.767Z,23.70
2022-09-01T08:23:47.864Z,23.60
2022-09-01T08:27:11.975Z,23.50
2022-09-01T08:30:36.250Z,23.40
2022-09-01T08:34:01.044Z,23.40
2022-09-01T08:37:25.716Z,23.40
2022-09-01T08:40:57.470Z,23.40
2022-09-01T08:44:45.822Z,23.40
2022-09-01T08:52:13.149Z,23.20
2022-09-01T08:55:44.599Z,23.10
2022-09-01T08:59:12.849Z,23.00
2022-09-01T09:03:14.816Z,23.00
2022-09-01T09:06:52.969Z,22.90
2022-09-01T09:10:24.042Z,22.90
2022-09-01T09:14:06.762Z,23.00
2022-09-01T09:17:39.658Z,23.00
2022-09-01T09:21:13.475Z,23.00
2022-09-01T09:24:50.135Z,23.00
2022-09-01T09:28:13.686Z,23.00
2022-09-01T09:31:45.813Z,23.00
2022-09-01T09:35:26.893Z,23.10
2022-09-01T09:39:13.722Z,23.10
2022-09-01T09:42:39.866Z,23.20
2022-09-01T09:46:25.717Z,23.30
2022-09-01T09:49:49.406Z,23.30
2022-09-01T09:53:28.419Z,23.60
2022-09-01T09:57:13.275Z,23.60
2022-09-01T10:00:37.747Z,24.00
2022-09-01T10:04:04.249Z,24.30
2022-09-01T10:07:34.274Z,24.50
2022-09-01T10:11:00.130Z,24.70
2022-09-01T10:14:51.674Z,24.80
2022-09-01T10:18:20.871Z,25.00
2022-09-01T10:21:47.153Z,25.00
2022-09-01T10:25:18.528Z,25.10
2022-09-01T10:28:53.911Z,25.30
2022-09-01T10:32:36.700Z,25.40
2022-09-01T10:36:01.352Z,25.40
2022-09-01T10:39:27.714Z,25.40
2022-09-01T10:42:57.267Z,25.50
2022-09-01T10:46:51.321Z,25.70
2022-09-01T10:50:35.462Z,26.30
2022-09-01T10:54:03.404Z,27.00
2022-09-01T10:57:45.630Z,27.50
2022-09-01T11:01:11.577Z,28.10
2022-09-01T11:05:16.510Z,28.60
2022-09-01T11:08:50.771Z,29.00
2022-09-01T11:12:50.631Z,29.10
2022-09-01T11:16:50.622Z,28.70
2022-09-01T11:20:26.845Z,28.30
2022-09-01T11:23:50.398Z,27.80
2022-09-01T11:27:53.272Z,27.50
2022-09-01T11:31:36.454Z,27.30
2022-09-01T11:35:05.993Z,27.40
2022-09-01T11:38:44.938Z,27.50
2022-09-01T11:42:19.197Z,27.80
2022-09-01T11:46:03.696Z,28.20
2022-09-01T11:49:34.856Z,28.90
2022-09-01T11:53:05.421Z,29.50
2022-09-01T11:56:30.557Z,30.00
2022-09-01T11:59:54.808Z,30.30
2022-09-01T12:03:26.063Z,30.40
2022-09-01T12:06:57.056Z,30.40
2022-09-01T12:10:29.896Z,30.20
2022-09-01T12:14:02.498Z,29.90
2022-09-01T12:17:28.834Z,29.60
2022-09-01T12:20:55.823Z,29.50
2022-09-01T12:24:22.501Z,29.40
2022-09-01T12:27:46.148Z,29.20
2022-09-01T12:31:19.916Z,29.10
2022-09-01T12:34:47.831Z,28.80
2022-09-01T12:38:30.964Z,28.50
2022-09-01T12:42:25.424Z,28.20
2022-09-01T12:45:49.444Z,28.00
2022-09-01T12:49:28.574Z,27.80
2022-09-01T12:52:54.835Z,27.70
2022-09-01T12:56:27.840Z,27.70
2022-09-01T12:59:51.415Z,27.90
2022-09-01T13:03:20.086Z,28.20
2022-09-01T13:06:45.146Z,28.40
2022-09-01T13:10:09.156Z,28.70
2022-09-01T13:13:35.279Z,28.90
2022-09-01T13:16:59.122Z,29.10
2022-09-01T13:20:22.610Z,29.30
2022-09-01T13:23:47.457Z,29.40
2022-09-01T13:27:20.856Z,29.40
2022-09-01T13:30:49.262Z,29.30
2022-09-01T13:34:21.821Z,29.00
2022-09-01T13:37:47.023Z,28.70
2022-09-01T13:41:11.989Z,28.50
2022-09-01T13:44:35.934Z,28.20
2022-09-01T13:48:16.320Z,28.00
2022-09-01T13:51:40.451Z,27.80
2022-09-01T13:55:04.330Z,27.60
2022-09-01T13:58:29.190Z,27.40
2022-09-01T14:01:52.741Z,27.30
2022-09-01T14:05:18.263Z,27.30
2022-09-01T14:08:42.753Z,27.20
2022-09-01T14:12:06.911Z,27.10
2022-09-01T14:15:31.899Z,27.00
2022-09-01T14:18:55.623Z,27.00
2022-09-01T14:22:19.218Z,27.00
2022-09-01T14:25:49.289Z,27.10
2022-09-01T14:29:12.870Z,27.10
2022-09-01T14:32:40.399Z,27.10
2022-09-01T14:36:04.433Z,27.10
2022-09-01T14:39:28.668Z,27.10
2022-09-01T14:42:54.054Z,27.00
2022-09-01T14:46:19.303Z,27.00
2022-09-01T14:49:44.875Z,27.00
2022-09-01T14:53:09.895Z,26.90
2022-09-01T14:56:33.706Z,26.80
2022-09-01T14:59:57.242Z,26.70
2022-09-01T15:03:22.911Z,26.60
2022-09-01T15:06:47.946Z,26.50
2022-09-01T15:10:24.840Z,26.40
2022-09-01T15:13:52.423Z,26.30
2022-09-01T15:17:15.954Z,26.30
2022-09-01T15:20:46.386Z,26.30
2022-09-01T15:24:12.244Z,26.20
2022-09-01T15:27:40.859Z,26.10
2022-09-01T15:31:05.144Z,26.10
2022-09-01T15:34:28.936Z,26.10
2022-09-01T15:37:53.761Z,26.10
2022-09-01T15:41:21.615Z,26.10
2022-09-01T15:44:47.284Z,26.10
2022-09-01T15:48:10.832Z,26.10
2022-09-01T15:51:37.778Z,26.20
2022-09-01T15:55:01.519Z,26.20
2022-09-01T15:58:34.377Z,26.20
2022-09-01T16:02:10.259Z,26.20
2022-09-01T16:05:37.895Z,26.20
2022-09-01T16:09:01.531Z,26.10
2022-09-01T16:12:26.447Z,26.00
2022-09-01T16:16:04.386Z,26.00
2022-09-01T16:19:42.935Z,25.90
2022-09-01T16:23:17.028Z,25.90
2022-09-01T16:26:45.318Z,25.80
2022-09-01T16:30:16.087Z,25.80
2022-09-01T16:33:48.259Z,25.70
2022-09-01T16:37:28.560Z,25.70
2022-09-01T16:40:59.184Z,25.60
2022-09-01T16:44:39.986Z,25.50
2022-09-01T16:48:19.091Z,25.50
2022-09-01T16:51:56.543Z,25.50
2022-09-01T16:55:35.941Z,25.40
2022-09-01T17:02:55.447Z,25.40
2022-09-01T17:06:31.691Z,25.30
2022-09-01T17:10:07.240Z,25.20
2022-09-01T17:13:39.954Z,25.10
2022-09-01T17:17:10.384Z,25.00
2022-09-01T17:20:40.772Z,25.00
2022-09-01T17:24:33.422Z,24.90
2022-09-01T17:28:06.903Z,24.80
2022-09-01T17:31:48.616Z,24.70
2022-09-01T17:35:20.503Z,24.60
2022-09-01T17:38:56.063Z,24.50
2022-09-01T17:42:33.665Z,24.50
2022-09-01T17:46:13.783Z,24.40
2022-09-01T17:49:48.728Z,24.30
2022-09-01T17:53:26.479Z,24.20
2022-09-01T17:57:09.300Z,24.20
2022-09-01T18:00:44.524Z,24.10
2022-09-01T18:04:40.126Z,24.00
2022-09-01T18:08:21.539Z,23.90
2022-09-01T18:11:53.624Z,23.90
2022-09-01T18:15:23.816Z,23.80
2022-09-01T18:18:51.153Z,23.80
2022-09-01T18:22:21.979Z,23.70
2022-09-01T18:25:54.507Z,23.60
2022-09-01T18:29:18.614Z,23.50
2022-09-01T18:32:44.575Z,23.50
2022-09-01T18:36:26.779Z,23.40
2022-09-01T18:40:06.129Z,23.30
2022-09-01T18:43:37.791Z,23.20
2022-09-01T18:47:07.257Z,23.10
2022-09-01T18:50:45.711Z,23.10
2022-09-01T18:54:17.310Z,23.00
2022-09-01T18:57:46.367Z,22.90
2022-09-01T19:01:15.006Z,22.80
2022-09-01T19:04:42.339Z,22.80
2022-09-01T19:08:20.740Z,22.70
2022-09-01T19:12:01.365Z,22.60
2022-09-01T19:15:38.124Z,22.60
2022-09-01T19:19:16.994Z,22.50
2022-09-01T19:22:48.261Z,22.50
2022-09-01T19:26:21.067Z,22.60
2022-09-01T19:29:52.381Z,22.40
2022-09-01T19:33:25.620Z,22.40
2022-09-01T19:36:53.932Z,22.40
2022-09-01T19:40:24.901Z,22.40
2022-09-01T19:43:57.295Z,22.30
2022-09-01T19:47:34.789Z,22.30
2022-09-01T19:51:06.440Z,22.30
2022-09-01T19:54:45.403Z,22.20
2022-09-01T19:58:17.271Z,22.20
2022-09-01T20:01:48.683Z,22.10
2022-09-01T20:05:27.400Z,22.10
2022-09-01T20:09:02.035Z,22.00
2022-09-01T20:12:39.458Z,22.00
2022-09-01T20:16:13.126Z,21.90
2022-09-01T20:19:45.402Z,21.90
2022-09-01T20:23:18.903Z,21.80
2022-09-01T20:26:57.240Z,21.80
2022-09-01T20:30:25.151Z,21.70
2022-09-01T20:33:56.073Z,21.70
2022-09-01T20:37:25.461Z,21.40
2022-09-01T20:40:50.241Z,21.60
2022-09-01T20:44:27.385Z,21.60
2022-09-01T20:47:55.757Z,21.60
2022-09-01T20:51:36.351Z,21.50
2022-09-01T20:55:09.993Z,21.50
2022-09-01T20:58:41.374Z,21.40
2022-09-01T21:02:32.416Z,21.40
2022-09-01T21:06:07.098Z,21.40
2022-09-01T21:09:46.206Z,21.30
2022-09-01T21:13:25.237Z,21.30
2022-09-01T21:17:03.895Z,21.20
2022-09-01T21:20:48.919Z,21.20
2022-09-01T21:24:12.640Z,21.20
2022-09-01T21:27:44.287Z,21.10
2022-09-01T21:31:08.813Z,21.10
2022-09-01T21:34:32.416Z,21.00
2022-09-01T21:37:57.448Z,21.00
2022-09-01T21:41:21.005Z,20.90
2022-09-01T21:44:44.825Z,20.90
2022-09-01T21:48:08.983Z,20.90
2022-09-01T21:51:32.677Z,20.90
2022-09-01T21:54:57.520Z,20.90
2022-09-01T21:58:21.798Z,20.80
2022-09-01T22:01:46.072Z,20.80
2022-09-01T22:05:10.959Z,20.80
2022-09-01T22:08:35.563Z,20.80
2022-09-01T22:12:00.737Z,20.80
2022-09-01T22:15:26.961Z,20.80
2022-09-01T22:18:50.533Z,20.70
2022-09-01T22:22:16.401Z,20.70
2022-09-01T22:25:45.435Z,20.60
2022-09-01T22:29:10.749Z,20.60
2022-09-01T22:32:36.095Z,20.60
2022-09-01T22:35:59.597Z,20.60
2022-09-01T22:39:25.160Z,20.50
2022-09-01T22:42:48.874Z,20.50
2022-09-01T22:46:14.491Z,20.40
2022-09-01T22:49:38.093Z,20.40
2022-09-01T22:53:01.576Z,20.40
2022-09-01T22:56:29.881Z,20.40
2022-09-01T22:59:53.698Z,20.30
2022-09-01T23:03:20.493Z,20.20
2022-09-01T23:06:47.869Z,20.20
2022-09-01T23:10:12.012Z,20.10
2022-09-01T23:13:36.901Z,20.10
2022-09-01T23:17:00.471Z,20.00
2022-09-01T23:20:25.608Z,20.10
2022-09-01T23:23:58.312Z,19.90
2022-09-01T23:27:22.521Z,19.90
2022-09-01T23:30:49.786Z,19.80
2022-09-01T23:34:14.201Z,19.70
2022-09-01T23:37:39.177Z,19.70
2022-09-01T23:41:08.253Z,19.70
2022-09-01T23:44:31.703Z,19.60
2022-09-01T23:47:55.157Z,19.60
2022-09-01T23:51:20.672Z,19.50
2022-09-01T23:54:45.461Z,19.40
2022-09-01T23:58:08.933Z,19.50
